Time;durP1;ratioP1;P1;durP2;ratioP2;P2;SDS_P1;SDS_P2;PMS_P1;PMS_P2;Temp;Humidity;BMP_temperature;BMP_pressure;BME280_temperature;BME280_humidity;BME280_pressure;Samples;Min_cycle;Max_cycle;Signal;HPM_P1;HPM_P2
2023/03/01 00:01:38;;;;;;;8.40;5.40;;;;;;;-2.52;90.43;102427.09;5030451;28;20053;-78
2023/03/01 00:04:05;;;;;;;11.45;6.03;;;;;;;-2.56;90.08;102435.34;5004388;28;20053;-77
2023/03/01 00:06:31;;;;;;;9.15;5.63;;;;;;;-2.62;90.67;102425.53;5009495;28;20034;-77
2023/03/01 00:08:58;;;;;;;17.60;6.88;;;;;;;-2.65;91.33;102430.44;5029056;28;20037;-79
2023/03/01 00:11:30;;;;;;;15.25;7.18;;;;;;;-2.63;92.15;102428.88;5003406;28;20096;-83
2023/03/01 00:14:01;;;;;;;11.55;6.90;;;;;;;-2.70;91.54;102430.09;5007491;28;20662;-77
2023/03/01 00:16:33;;;;;;;11.35;6.25;;;;;;;-2.74;91.98;102440.88;4993640;28;20037;-82
2023/03/01 00:19:00;;;;;;;8.63;5.25;;;;;;;-2.71;92.35;102445.34;5010740;28;20045;-83
2023/03/01 00:21:27;;;;;;;8.05;5.93;;;;;;;-2.73;92.83;102441.81;5023786;28;20046;-82
2023/03/01 00:23:54;;;;;;;9.15;5.80;;;;;;;-2.74;93.33;102440.00;5020640;28;20044;-77
2023/03/01 00:26:23;;;;;;;14.93;7.55;;;;;;;-2.75;93.47;102445.91;5003125;28;20099;-85
2023/03/01 00:28:50;;;;;;;12.40;7.05;;;;;;;-2.71;94.79;102442.78;5015528;28;20057;-78
2023/03/01 00:31:22;;;;;;;12.20;5.90;;;;;;;-2.66;94.70;102436.31;5002405;28;20199;-82
2023/03/01 00:33:49;;;;;;;11.57;7.03;;;;;;;-2.73;94.56;102434.09;5012649;28;20049;-78
2023/03/01 00:36:19;;;;;;;13.52;7.97;;;;;;;-2.78;94.95;102435.44;5005348;28;20065;-81
2023/03/01 00:38:46;;;;;;;11.13;6.95;;;;;;;-2.84;95.16;102431.63;4984606;28;20045;-78
2023/03/01 00:41:19;;;;;;;14.75;7.53;;;;;;;-2.87;95.98;102433.06;5033257;28;20412;-81
2023/03/01 00:43:46;;;;;;;11.40;7.07;;;;;;;-2.87;95.89;102434.00;5025799;28;20050;-81
2023/03/01 00:46:17;;;;;;;16.30;8.30;;;;;;;-2.89;96.49;102430.41;5009469;28;20037;-78
2023/03/01 00:48:44;;;;;;;11.32;7.20;;;;;;;-2.87;97.92;102427.94;5010325;28;20384;-83
2023/03/01 00:51:18;;;;;;;11.55;7.00;;;;;;;-2.78;98.15;102420.94;5002359;28;20156;-80
2023/03/01 00:53:46;;;;;;;14.18;7.47;;;;;;;-2.80;97.19;102425.09;5012884;28;20077;-78
2023/03/01 00:56:15;;;;;;;11.93;7.35;;;;;;;-2.89;97.00;102417.59;4996575;28;20473;-78
2023/03/01 00:58:42;;;;;;;12.60;7.03;;;;;;;-2.89;97.72;102422.72;5025552;28;20041;-78
2023/03/01 01:01:23;;;;;;;13.23;7.32;;;;;;;-2.83;98.40;102422.25;5030562;28;20040;-77
2023/03/01 01:03:54;;;;;;;11.35;6.85;;;;;;;-2.87;97.76;102420.25;5016421;28;20056;-78
2023/03/01 01:06:37;;;;;;;11.07;7.18;;;;;;;-2.91;98.66;102421.69;5031247;28;20046;-79
2023/03/01 01:09:07;;;;;;;10.20;7.25;;;;;;;-2.89;98.98;102424.41;5025276;28;20045;-79
2023/03/01 01:11:36;;;;;;;14.32;8.18;;;;;;;-2.88;98.14;102421.03;5012318;28;20045;-77
2023/03/01 01:14:03;;;;;;;15.30;8.30;;;;;;;-2.87;98.70;102422.81;5013670;28;20044;-80
2023/03/01 01:16:30;;;;;;;23.75;8.45;;;;;;;-2.86;99.53;102420.38;5013721;28;20065;-78
2023/03/01 01:18:58;;;;;;;17.85;9.27;;;;;;;-2.86;98.72;102414.38;5016757;28;21048;-80
2023/03/01 01:21:26;;;;;;;11.38;7.03;;;;;;;-2.88;98.24;102418.47;5012494;28;20391;-81
2023/03/01 01:23:54;;;;;;;11.25;7.32;;;;;;;-2.93;98.41;102412.09;5000011;28;20038;-79
2023/03/01 01:26:28;;;;;;;10.43;6.22;;;;;;;-3.00;98.99;102408.19;5008956;28;20511;-76
2023/03/01 01:28:55;;;;;;;11.93;7.60;;;;;;;-3.03;99.68;102414.00;5028951;28;20108;-77
2023/03/01 01:31:23;;;;;;;11.43;6.78;;;;;;;-3.05;99.62;102404.41;5014319;28;20041;-78
2023/03/01 01:33:51;;;;;;;13.63;7.68;;;;;;;-3.02;100.00;102405.53;5013890;28;20042;-77
2023/03/01 01:36:18;;;;;;;13.30;7.53;;;;;;;-3.00;100.00;102408.19;4994379;28;20053;-78
2023/03/01 01:38:45;;;;;;;19.95;7.55;;;;;;;-2.97;100.00;102402.41;5031784;28;20044;-79
2023/03/01 01:41:13;;;;;;;13.35;8.25;;;;;;;-2.98;100.00;102398.97;5023948;28;20120;-78
2023/03/01 01:43:47;;;;;;;14.80;8.88;;;;;;;-2.96;99.74;102404.22;5008372;28;20041;-81
2023/03/01 01:46:29;;;;;;;12.10;6.82;;;;;;;-3.07;99.51;102396.59;5015585;28;20050;-83
2023/03/01 01:49:05;;;;;;;10.02;7.05;;;;;;;-3.10;100.00;102393.84;5010092;28;20051;-83
2023/03/01 01:51:41;;;;;;;16.85;7.18;;;;;;;-3.18;100.00;102390.69;5028168;28;20189;-79
2023/03/01 01:54:28;;;;;;;10.15;6.45;;;;;;;-3.23;100.00;102394.56;5013749;28;20034;-82
2023/03/01 01:57:11;;;;;;;10.57;6.53;;;;;;;-3.25;100.00;102385.88;5004212;28;20120;-80
2023/03/01 01:59:40;;;;;;;14.02;6.45;;;;;;;-3.29;100.00;102391.53;5014376;28;20044;-80
2023/03/01 02:02:06;;;;;;;12.70;6.53;;;;;;;-3.30;100.00;102394.00;4998388;28;20041;-82
2023/03/01 02:04:34;;;;;;;12.07;6.50;;;;;;;-3.38;100.00;102386.63;4995348;28;20055;-77
2023/03/01 02:07:23;;;;;;;12.32;6.20;;;;;;;-3.39;100.00;102387.41;5003779;28;20131;-86
2023/03/01 02:09:52;;;;;;;14.02;7.88;;;;;;;-3.41;100.00;102394.06;5012845;28;20110;-78
2023/03/01 02:12:22;;;;;;;11.23;6.60;;;;;;;-3.43;100.00;102385.38;5009106;28;20088;-77
2023/03/01 02:14:49;;;;;;;10.85;7.80;;;;;;;-3.47;100.00;102387.59;5012168;28;20037;-77
2023/03/01 02:17:19;;;;;;;15.35;7.57;;;;;;;-3.50;100.00;102383.13;5009727;28;20052;-78
2023/03/01 02:19:58;;;;;;;9.43;7.55;;;;;;;-3.47;100.00;102378.25;5013829;28;20045;-79
2023/03/01 02:22:29;;;;;;;11.23;7.03;;;;;;;-3.49;100.00;102375.56;5012598;28;20695;-79
2023/03/01 02:25:18;;;;;;;10.93;6.85;;;;;;;-3.48;100.00;102376.47;5013741;28;20400;-80
2023/03/01 02:28:33;;;;;;;14.55;8.32;;;;;;;-3.53;100.00;102373.56;5017324;28;20445;-77
2023/03/01 02:33:45;;;;;;;10.73;6.63;;;;;;;-3.57;100.00;102383.44;5029855;28;19948;-78
2023/03/01 02:36:22;;;;;;;13.07;6.55;;;;;;;-3.54;100.00;102376.00;4998987;28;20093;-77
2023/03/01 02:38:53;;;;;;;15.30;8.40;;;;;;;-3.57;100.00;102384.34;5015739;28;20128;-77
2023/03/01 02:41:22;;;;;;;15.85;8.35;;;;;;;-3.64;100.00;102376.06;5007114;28;20195;-77
2023/03/01 02:43:48;;;;;;;13.80;7.82;;;;;;;-3.62;100.00;102372.84;5010374;28;20034;-81
2023/03/01 02:46:23;;;;;;;17.85;9.95;;;;;;;-3.63;100.00;102368.50;5012184;28;20684;-78
2023/03/01 02:48:55;;;;;;;14.00;9.60;;;;;;;-3.62;100.00;102366.81;5029139;28;20094;-80
2023/03/01 02:51:33;;;;;;;16.15;9.27;;;;;;;-3.63;100.00;102368.50;5011782;28;20050;-77
2023/03/01 02:54:26;;;;;;;16.42;9.48;;;;;;;-3.62;100.00;102354.03;5026501;28;20049;-78
2023/03/01 02:56:54;;;;;;;16.98;8.48;;;;;;;-3.66;100.00;102346.13;5025542;28;20484;-78
2023/03/01 02:59:24;;;;;;;15.98;9.55;;;;;;;-3.67;100.00;102357.13;5014693;28;20095;-77
2023/03/01 03:01:50;;;;;;;15.45;8.85;;;;;;;-3.68;100.00;102345.13;5012159;28;20044;-78
2023/03/01 03:04:20;;;;;;;11.77;8.48;;;;;;;-3.70;100.00;102344.13;5020284;28;20041;-83
2023/03/01 03:06:50;;;;;;;18.20;10.23;;;;;;;-3.71;100.00;102333.78;5013189;28;20045;-76
2023/03/01 03:09:18;;;;;;;14.15;8.18;;;;;;;-3.72;100.00;102330.28;5027098;28;20049;-79
2023/03/01 03:11:44;;;;;;;15.38;9.25;;;;;;;-3.75;100.00;102327.53;5014171;28;20034;-80
2023/03/01 03:14:13;;;;;;;12.48;8.35;;;;;;;-3.82;100.00;102325.25;5012258;28;20076;-87
2023/03/01 03:16:46;;;;;;;16.25;9.05;;;;;;;-3.84;100.00;102319.16;5008700;28;20045;-77
2023/03/01 03:19:14;;;;;;;16.17;7.70;;;;;;;-3.83;100.00;102319.25;5001157;28;20049;-78
2023/03/01 03:21:40;;;;;;;13.13;8.13;;;;;;;-3.85;100.00;102314.78;5013419;28;20041;-78
2023/03/01 03:24:07;;;;;;;15.20;9.60;;;;;;;-3.88;100.00;102324.81;5024389;28;20556;-78
2023/03/01 03:26:34;;;;;;;15.02;8.25;;;;;;;-3.90;100.00;102328.91;4993467;28;20059;-80
2023/03/01 03:29:01;;;;;;;14.55;8.48;;;;;;;-3.94;100.00;102317.53;5013115;28;20077;-77
2023/03/01 03:31:28;;;;;;;13.80;7.75;;;;;;;-3.93;100.00;102328.69;5004904;28;20042;-77
2023/03/01 03:33:55;;;;;;;16.00;9.70;;;;;;;-3.97;100.00;102319.88;5003572;28;20042;-80
2023/03/01 03:36:25;;;;;;;13.15;7.57;;;;;;;-4.01;100.00;102316.16;5017679;28;20045;-80
2023/03/01 03:38:52;;;;;;;14.00;8.15;;;;;;;-4.03;100.00;102311.72;5012120;28;20491;-79
2023/03/01 03:41:19;;;;;;;12.13;7.80;;;;;;;-4.07;100.00;102310.56;5023132;28;20038;-90
2023/03/01 03:43:45;;;;;;;13.23;8.05;;;;;;;-4.09;100.00;102311.22;5015976;28;21632;-77
2023/03/01 03:46:13;;;;;;;15.25;8.20;;;;;;;-4.12;100.00;102311.00;5022055;28;20037;-78
2023/03/01 03:48:45;;;;;;;16.50;9.23;;;;;;;-4.12;100.00;102309.31;5008639;28;20050;-76
2023/03/01 03:51:18;;;;;;;14.45;7.55;;;;;;;-4.16;100.00;102308.22;5012623;28;20052;-79
2023/03/01 03:53:46;;;;;;;15.05;9.52;;;;;;;-4.19;100.00;102313.06;5005384;28;20195;-82
2023/03/01 03:56:13;;;;;;;15.23;8.15;;;;;;;-4.19;100.00;102314.75;5004813;28;20037;-79
2023/03/01 03:58:40;;;;;;;12.30;7.97;;;;;;;-4.19;100.00;102318.19;5006212;28;20072;-77
2023/03/01 04:01:07;;;;;;;14.32;7.93;;;;;;;-4.19;100.00;102319.88;5014667;28;20188;-78
2023/03/01 04:03:34;;;;;;;17.42;8.32;;;;;;;-4.25;100.00;102319.38;5008942;28;20045;-82
2023/03/01 04:06:01;;;;;;;13.10;8.00;;;;;;;-4.23;100.00;102318.72;5011158;28;20806;-79
2023/03/01 04:08:29;;;;;;;21.58;9.20;;;;;;;-4.20;100.00;102320.63;5015143;28;20396;-78
2023/03/01 04:11:25;;;;;;;15.40;10.00;;;;;;;-4.20;100.00;102320.63;5015835;28;20056;-76
2023/03/01 04:13:54;;;;;;;13.27;9.53;;;;;;;-4.15;100.00;102321.88;5020284;28;20124;-79
2023/03/01 04:16:21;;;;;;;17.27;9.07;;;;;;;-4.16;100.00;102323.56;5028454;28;20049;-80
2023/03/01 04:18:49;;;;;;;16.75;10.27;;;;;;;-4.17;100.00;102328.56;5007536;28;20642;-78
2023/03/01 04:21:16;;;;;;;18.37;10.00;;;;;;;-4.20;100.00;102328.31;4991292;28;20126;-80
2023/03/01 04:23:43;;;;;;;18.08;9.38;;;;;;;-4.22;100.00;102324.75;4998163;28;20132;-77
2023/03/01 04:26:09;;;;;;;20.33;8.43;;;;;;;-4.26;100.00;102335.50;5016099;28;20049;-78
2023/03/01 04:28:42;;;;;;;18.87;10.60;;;;;;;-4.26;100.00;102333.84;4999068;28;20388;-84
2023/03/01 04:31:18;;;;;;;18.20;10.32;;;;;;;-4.26;100.00;102333.84;5022816;28;20567;-78
2023/03/01 04:33:51;;;;;;;15.57;8.73;;;;;;;-4.26;100.00;102338.06;5016440;28;20036;-80
2023/03/01 04:36:19;;;;;;;16.70;10.03;;;;;;;-4.29;100.00;102335.25;5015130;28;20049;-78
2023/03/01 04:38:47;;;;;;;22.02;9.63;;;;;;;-4.32;100.00;102336.78;5011364;28;20034;-77
2023/03/01 04:41:14;;;;;;;19.02;11.65;;;;;;;-4.32;100.00;102343.59;5011765;28;20037;-80
2023/03/01 04:43:44;;;;;;;18.37;9.80;;;;;;;-4.33;100.00;102332.47;5029606;28;20053;-88
2023/03/01 04:46:19;;;;;;;16.70;10.32;;;;;;;-4.32;100.00;102331.69;5027920;28;20049;-77
2023/03/01 04:48:48;;;;;;;19.50;9.43;;;;;;;-4.33;100.00;102334.13;5029030;28;20616;-80
2023/03/01 04:51:15;;;;;;;17.85;9.27;;;;;;;-4.32;100.00;102333.34;5008552;28;20116;-77
2023/03/01 04:53:42;;;;;;;16.40;9.93;;;;;;;-4.35;100.00;102328.03;4993313;28;20112;-78
2023/03/01 04:56:10;;;;;;;14.73;9.30;;;;;;;-4.35;100.00;102325.47;5014595;28;20042;-77
2023/03/01 04:58:38;;;;;;;15.43;9.57;;;;;;;-4.36;100.00;102323.66;5021152;28;20125;-81
2023/03/01 05:01:20;;;;;;;19.70;9.13;;;;;;;-4.39;100.00;102329.44;5028277;28;20044;-76
2023/03/01 05:03:49;;;;;;;16.63;10.00;;;;;;;-4.41;100.00;102327.53;4990892;28;20045;-76
2023/03/01 05:06:21;;;;;;;16.97;9.33;;;;;;;-4.42;100.00;102326.66;5005439;28;20069;-80
2023/03/01 05:08:47;;;;;;;15.57;9.43;;;;;;;-4.42;100.00;102329.19;5013420;28;20742;-84
2023/03/01 05:11:13;;;;;;;14.93;8.57;;;;;;;-4.42;100.00;102323.19;4996367;28;20044;-79
2023/03/01 05:13:40;;;;;;;13.50;9.87;;;;;;;-4.47;100.00;102322.84;4994282;28;20451;-76
2023/03/01 05:16:10;;;;;;;16.33;9.30;;;;;;;-4.50;100.00;102318.38;5015533;28;20124;-84
2023/03/01 05:18:37;;;;;;;14.97;8.47;;;;;;;-4.50;100.00;102310.69;5011464;28;20759;-78
2023/03/01 05:21:08;;;;;;;12.03;8.53;;;;;;;-4.49;100.00;102306.47;5016454;28;20037;-80
2023/03/01 05:23:35;;;;;;;16.90;9.48;;;;;;;-4.46;100.00;102309.25;5011294;28;20045;-84
2023/03/01 05:26:05;;;;;;;13.93;8.47;;;;;;;-4.44;100.00;102314.50;5013999;28;20041;-85
2023/03/01 05:28:32;;;;;;;14.80;8.70;;;;;;;-4.49;100.00;102307.34;5014283;28;20445;-81
2023/03/01 05:30:59;;;;;;;15.13;9.67;;;;;;;-4.52;100.00;102303.69;5020367;28;20069;-80
2023/03/01 05:33:27;;;;;;;14.43;7.93;;;;;;;-4.56;100.00;102300.00;5001325;28;20061;-78
2023/03/01 05:35:54;;;;;;;16.93;9.87;;;;;;;-4.54;100.00;102305.22;5000857;28;20475;-78
2023/03/01 05:38:22;;;;;;;18.03;9.13;;;;;;;-4.57;100.00;102303.31;5032742;28;20518;-83
2023/03/01 05:40:51;;;;;;;15.47;9.60;;;;;;;-4.57;100.00;102307.53;5012781;28;20608;-78
2023/03/01 05:43:18;;;;;;;17.37;9.80;;;;;;;-4.55;100.00;102309.44;5013375;28;20045;-84
2023/03/01 05:45:46;;;;;;;17.07;9.77;;;;;;;-4.57;100.00;102307.53;4996814;28;20068;-81
2023/03/01 05:48:13;;;;;;;12.53;8.33;;;;;;;-4.57;100.00;102299.88;5010216;28;20400;-78
2023/03/01 05:50:45;;;;;;;14.50;8.43;;;;;;;-4.51;100.00;102298.69;5011834;28;20041;-79
2023/03/01 05:53:15;;;;;;;11.67;8.17;;;;;;;-4.53;100.00;102302.78;5007215;28;20041;-82
2023/03/01 05:55:42;;;;;;;15.80;9.20;;;;;;;-4.53;100.00;102302.78;5010054;28;20113;-79
2023/03/01 05:58:13;;;;;;;15.90;9.77;;;;;;;-4.50;100.00;102308.16;4996859;28;20045;-83
2023/03/01 06:00:40;;;;;;;17.50;9.67;;;;;;;-4.45;100.00;102305.94;5016433;28;20041;-88
2023/03/01 06:03:07;;;;;;;19.13;10.60;;;;;;;-4.38;100.00;102310.78;5025353;28;20041;-77
2023/03/01 06:05:35;;;;;;;17.13;9.77;;;;;;;-4.35;100.00;102308.44;4996052;28;20493;-77
2023/03/01 06:08:02;;;;;;;17.10;10.03;;;;;;;-4.24;100.00;102308.38;5016532;28;20041;-78
2023/03/01 06:10:29;;;;;;;19.40;10.30;;;;;;;-4.19;100.00;102312.19;5012082;28;20045;-76
2023/03/01 06:12:57;;;;;;;17.30;9.57;;;;;;;-4.21;100.00;102312.09;5024988;28;20042;-81
2023/03/01 06:15:24;;;;;;;18.47;10.57;;;;;;;-4.24;100.00;102305.84;5008185;28;20045;-80
2023/03/01 06:17:51;;;;;;;20.53;9.67;;;;;;;-4.23;100.00;102312.75;5025038;28;20052;-79
2023/03/01 06:20:22;;;;;;;17.50;10.32;;;;;;;-4.30;100.00;102313.94;5020701;28;20060;-77
2023/03/01 06:22:52;;;;;;;18.30;9.70;;;;;;;-4.34;100.00;102322.09;5006887;28;20440;-81
2023/03/01 06:25:23;;;;;;;24.03;10.73;;;;;;;-4.33;100.00;102311.13;5012065;28;20131;-79
2023/03/01 06:27:51;;;;;;;18.60;10.00;;;;;;;-4.34;100.00;102312.78;5010878;28;20045;-77
2023/03/01 06:30:26;;;;;;;15.43;9.47;;;;;;;-4.35;100.00;102305.88;5013261;28;20065;-78
2023/03/01 06:33:02;;;;;;;12.75;7.55;;;;;;;-4.30;100.00;102318.13;5015837;28;20037;-78
2023/03/01 06:35:30;;;;;;;22.30;10.13;;;;;;;-4.28;100.00;102312.38;5013694;28;20064;-75
2023/03/01 06:37:58;;;;;;;14.27;9.27;;;;;;;-4.27;100.00;102314.16;5034368;28;20559;-75
2023/03/01 06:40:25;;;;;;;20.47;9.77;;;;;;;-4.29;100.00;102314.81;5011427;28;21455;-75
2023/03/01 06:42:52;;;;;;;18.88;10.65;;;;;;;-4.29;100.00;102317.38;5014349;28;20107;-80
2023/03/01 06:45:21;;;;;;;13.55;9.95;;;;;;;-4.29;100.00;102307.13;4995790;28;20045;-84
2023/03/01 06:47:48;;;;;;;25.70;11.30;;;;;;;-4.29;100.00;102308.03;5010978;28;20045;-77
2023/03/01 06:50:16;;;;;;;12.50;8.48;;;;;;;-4.28;100.00;102309.81;5013845;28;20042;-81
2023/03/01 06:52:44;;;;;;;20.53;11.77;;;;;;;-4.27;100.00;102308.16;5012392;28;20049;-76
2023/03/01 06:55:12;;;;;;;18.20;9.77;;;;;;;-4.26;100.00;102309.91;4996896;28;20045;-80
2023/03/01 06:57:38;;;;;;;19.47;9.77;;;;;;;-4.24;100.00;102311.81;5007533;28;20041;-79
2023/03/01 07:00:07;;;;;;;14.65;9.77;;;;;;;-4.25;100.00;102310.06;5012861;28;20037;-80
2023/03/01 07:02:33;;;;;;;22.33;10.83;;;;;;;-4.21;100.00;102314.66;5033446;28;20057;-81
2023/03/01 07:05:00;;;;;;;24.50;11.30;;;;;;;-4.16;100.00;102309.88;5010557;28;20041;-80
2023/03/01 07:07:27;;;;;;;20.55;13.55;;;;;;;-4.10;100.00;102317.16;5013626;28;20465;-82
2023/03/01 07:09:54;;;;;;;17.73;10.48;;;;;;;-4.05;100.00;102320.94;5033331;28;20510;-76
2023/03/01 07:12:20;;;;;;;34.42;12.45;;;;;;;-3.95;100.00;102312.31;5013838;28;20042;-77
2023/03/01 07:14:47;;;;;;;19.33;10.38;;;;;;;-3.82;100.00;102312.47;5009586;28;20045;-80
2023/03/01 07:17:13;;;;;;;20.17;11.65;;;;;;;-3.19;100.00;102309.50;5009611;28;20488;-82
2023/03/01 07:19:40;;;;;;;21.80;11.27;;;;;;;-2.16;100.00;102304.81;4996122;28;20038;-77
2023/03/01 07:22:07;;;;;;;16.88;9.40;;;;;;;-1.19;100.00;102297.59;5006973;28;20048;-84
2023/03/01 07:24:34;;;;;;;13.85;7.93;;;;;;;-0.38;97.03;102299.34;5009721;28;20046;-80
2023/03/01 07:27:01;;;;;;;11.00;6.93;;;;;;;0.35;92.80;102292.53;5028999;28;20033;-78
2023/03/01 07:29:28;;;;;;;12.18;7.10;;;;;;;0.94;88.69;102284.78;5025022;28;20080;-76
2023/03/01 07:31:55;;;;;;;13.77;6.72;;;;;;;1.51;84.37;102283.59;4991791;28;20129;-80
2023/03/01 07:34:25;;;;;;;9.07;6.32;;;;;;;1.91;83.19;102280.56;5018941;28;20037;-78
2023/03/01 07:36:52;;;;;;;12.70;7.43;;;;;;;2.29;80.23;102277.41;5022631;28;20045;-79
2023/03/01 07:39:18;;;;;;;11.25;6.28;;;;;;;2.77;77.86;102271.13;4990555;28;20042;-83
2023/03/01 07:41:45;;;;;;;10.93;5.93;;;;;;;3.10;76.29;102270.97;5006884;28;20041;-77
2023/03/01 07:44:11;;;;;;;16.80;7.43;;;;;;;3.16;74.20;102268.69;5008451;28;20041;-82
2023/03/01 07:46:38;;;;;;;10.93;7.05;;;;;;;3.06;74.54;102259.59;5004570;28;20068;-78
2023/03/01 07:49:05;;;;;;;10.57;6.13;;;;;;;2.81;76.06;102263.56;5005739;28;20049;-79
2023/03/01 07:51:31;;;;;;;17.00;7.85;;;;;;;2.94;76.08;102259.88;5011632;28;20150;-79
2023/03/01 07:53:58;;;;;;;16.40;8.20;;;;;;;2.60;74.76;102262.53;5020909;28;20058;-78
2023/03/01 07:56:24;;;;;;;9.02;6.68;;;;;;;1.97;76.51;102266.28;4996876;28;20038;-86
2023/03/01 07:58:51;;;;;;;14.20;8.18;;;;;;;1.34;78.31;102270.63;5013719;28;20065;-82
2023/03/01 08:01:24;;;;;;;11.95;7.05;;;;;;;0.74;79.97;102272.44;4992952;28;20048;-79
2023/03/01 08:03:50;;;;;;;9.13;6.13;;;;;;;0.24;80.59;102276.44;5022658;28;20038;-79
2023/03/01 08:06:18;;;;;;;11.60;6.28;;;;;;;-0.12;82.35;102283.72;4994510;28;20049;-81
2023/03/01 08:08:45;;;;;;;10.95;7.15;;;;;;;-0.36;85.11;102284.88;5009436;28;20038;-77
2023/03/01 08:11:15;;;;;;;10.68;6.85;;;;;;;-0.54;84.91;102281.16;5020294;28;20048;-79
2023/03/01 08:13:43;;;;;;;11.50;6.80;;;;;;;-0.67;86.18;102270.09;4990767;28;20064;-82
2023/03/01 08:16:15;;;;;;;11.95;7.85;;;;;;;-0.72;87.57;102281.78;5008570;28;20049;-79
2023/03/01 08:18:43;;;;;;;10.80;7.45;;;;;;;-0.80;89.02;102275.25;4999161;28;20756;-77
2023/03/01 08:21:16;;;;;;;15.82;9.35;;;;;;;-0.86;89.57;102285.16;5006334;28;20045;-77
2023/03/01 08:23:43;;;;;;;17.02;8.18;;;;;;;-0.87;90.02;102280.81;5005974;28;20037;-78
2023/03/01 08:26:21;;;;;;;10.85;6.80;;;;;;;-0.84;88.96;102275.84;5025083;28;20060;-80
2023/03/01 08:28:50;;;;;;;10.25;5.85;;;;;;;-0.79;87.11;102279.63;5008726;28;20104;-81
2023/03/01 08:31:27;;;;;;;8.82;5.85;;;;;;;-0.74;86.87;102275.66;5026445;28;20048;-89
2023/03/01 08:33:57;;;;;;;12.38;5.85;;;;;;;-0.72;86.33;102268.94;5012028;28;20376;-76
2023/03/01 08:36:31;;;;;;;9.65;5.32;;;;;;;-0.63;84.25;102270.31;5008721;28;20594;-78
2023/03/01 08:38:59;;;;;;;9.35;5.38;;;;;;;-0.54;82.57;102273.44;5022293;28;20503;-77
2023/03/01 08:41:27;;;;;;;12.95;5.57;;;;;;;-0.47;82.06;102269.56;5014766;28;20062;-77
2023/03/01 08:43:58;;;;;;;6.18;4.68;;;;;;;-0.45;82.54;102263.72;5030462;28;20045;-76
2023/03/01 08:46:31;;;;;;;7.43;5.05;;;;;;;-0.38;81.73;102265.00;4998689;28;20124;-77
2023/03/01 08:49:00;;;;;;;7.55;4.57;;;;;;;-0.37;81.39;102261.63;4997063;28;20232;-81
2023/03/01 08:51:28;;;;;;;6.30;4.75;;;;;;;-0.31;81.58;102264.59;5014626;28;20041;-81
2023/03/01 08:53:55;;;;;;;11.63;5.30;;;;;;;-0.25;80.72;102270.13;5014083;28;20490;-80
2023/03/01 08:56:28;;;;;;;10.43;5.70;;;;;;;-0.21;81.34;102266.03;5007666;28;20160;-80
2023/03/01 08:58:54;;;;;;;9.32;5.40;;;;;;;-0.15;80.98;102268.09;4990666;28;20056;-82
2023/03/01 09:01:25;;;;;;;7.78;4.68;;;;;;;-0.08;79.44;102267.66;5024962;28;20064;-79
2023/03/01 09:03:52;;;;;;;8.45;5.15;;;;;;;0.01;79.02;102270.78;4993533;28;20050;-80
2023/03/01 09:06:18;;;;;;;11.75;4.90;;;;;;;0.04;79.54;102276.13;5009263;28;20045;-79
2023/03/01 09:08:48;;;;;;;12.32;6.40;;;;;;;0.11;79.08;102272.25;5011427;28;20072;-78
2023/03/01 09:11:28;;;;;;;8.80;5.90;;;;;;;0.17;78.34;102270.03;5031891;28;20491;-79
2023/03/01 09:13:55;;;;;;;7.45;4.93;;;;;;;0.26;77.71;102265.44;5016345;28;20147;-83
2023/03/01 09:16:29;;;;;;;11.10;5.55;;;;;;;0.36;76.51;102266.84;5007531;28;20069;-78
2023/03/01 09:18:56;;;;;;;9.43;5.03;;;;;;;0.40;76.61;102255.91;5019598;28;20033;-77
2023/03/01 09:21:26;;;;;;;7.30;4.65;;;;;;;0.48;75.86;102262.44;5014340;28;20091;-80
2023/03/01 09:23:52;;;;;;;8.82;5.15;;;;;;;0.55;76.00;102262.75;5027699;28;20060;-78
2023/03/01 09:26:27;;;;;;;10.48;4.63;;;;;;;0.58;75.53;102250.06;5009746;28;20767;-77
2023/03/01 09:28:57;;;;;;;8.30;4.05;;;;;;;0.62;75.83;102255.47;5017018;28;20080;-76
2023/03/01 09:31:27;;;;;;;6.18;4.18;;;;;;;0.66;75.32;102253.97;5019856;28;20049;-78
2023/03/01 09:33:55;;;;;;;7.40;3.67;;;;;;;0.80;73.78;102249.59;4990083;28;20061;-79
2023/03/01 09:36:26;;;;;;;9.52;3.42;;;;;;;0.88;72.89;102238.03;5011861;28;20045;-82
2023/03/01 09:38:56;;;;;;;6.88;3.42;;;;;;;0.95;71.97;102240.16;5012698;28;20041;-78
2023/03/01 09:41:51;;;;;;;7.13;3.72;;;;;;;0.92;72.42;102231.38;5008553;28;20733;-81
2023/03/01 09:44:57;;;;;;;9.13;4.45;;;;;;;0.97;71.72;102237.66;5024160;28;20095;-77
2023/03/01 09:47:36;;;;;;;12.05;5.50;;;;;;;1.07;71.96;102242.53;5031110;28;20152;-77
2023/03/01 09:50:29;;;;;;;9.82;4.00;;;;;;;1.17;71.78;102238.75;5023922;28;20162;-77
2023/03/01 09:53:12;;;;;;;9.98;4.13;;;;;;;1.35;70.83;102232.84;5013902;28;20124;-76
2023/03/01 09:55:46;;;;;;;;;;;;;;;1.44;69.40;102235.91;5030402;28;20042;-76
2023/03/01 09:58:48;;;;;;;10.43;5.03;;;;;;;1.54;68.81;102230.44;5015682;28;19921;-76
2023/03/01 10:01:39;;;;;;;5.55;3.35;;;;;;;1.58;68.00;102227.22;5023983;28;20076;-84
2023/03/01 10:04:28;;;;;;;7.15;5.13;;;;;;;1.59;68.12;102231.59;5014496;28;20083;-81
2023/03/01 10:07:11;;;;;;;9.27;4.43;;;;;;;1.68;67.55;102236.31;5027709;28;20117;-76
2023/03/01 10:09:44;;;;;;;10.68;5.10;;;;;;;1.69;67.35;102237.22;5027737;28;20041;-78
2023/03/01 10:12:16;;;;;;;10.50;4.38;;;;;;;1.67;67.65;102234.56;5015250;28;20045;-79
2023/03/01 10:15:15;;;;;;;8.63;5.22;;;;;;;1.76;68.62;102239.31;5024438;28;20037;-79
2023/03/01 10:18:05;;;;;;;9.23;4.72;;;;;;;1.89;67.95;102241.75;5026037;28;20061;-78
2023/03/01 10:20:48;;;;;;;6.72;4.53;;;;;;;2.03;66.43;102233.81;5016493;28;20488;-77
2023/03/01 10:23:15;;;;;;;8.48;4.05;;;;;;;2.08;65.96;102224.63;5015572;28;20048;-78
2023/03/01 10:26:06;;;;;;;7.97;4.53;;;;;;;2.18;65.78;102232.03;5027415;28;20053;-82
2023/03/01 10:28:54;;;;;;;8.27;4.18;;;;;;;2.31;65.95;102226.66;5028478;28;20060;-83
2023/03/01 10:31:27;;;;;;;7.80;4.82;;;;;;;2.41;65.85;102229.72;5027731;28;20049;-79
2023/03/01 10:33:56;;;;;;;10.70;6.05;;;;;;;2.42;65.69;102232.34;5011810;28;20057;-81
2023/03/01 10:36:24;;;;;;;5.95;3.88;;;;;;;2.49;65.05;102231.00;5006127;28;20045;-76
2023/03/01 10:38:57;;;;;;;8.35;4.50;;;;;;;2.46;64.82;102225.66;5010028;28;20033;-79
2023/03/01 10:41:28;;;;;;;5.28;3.95;;;;;;;2.46;65.47;102221.38;5003670;28;20144;-79
2023/03/01 10:43:59;;;;;;;4.57;3.20;;;;;;;2.57;64.78;102221.91;5011128;28;20045;-77
2023/03/01 10:46:34;;;;;;;6.80;4.47;;;;;;;2.65;63.84;102224.88;4996984;28;20049;-78
2023/03/01 10:49:25;;;;;;;13.15;3.67;;;;;;;2.69;63.97;102216.44;5027190;28;20460;-77
2023/03/01 10:51:54;;;;;;;5.40;3.53;;;;;;;2.72;63.87;102221.75;4998120;28;20066;-79
2023/03/01 10:54:29;;;;;;;5.03;3.47;;;;;;;2.81;62.76;102221.31;5011563;28;20117;-81
2023/03/01 10:57:03;;;;;;;6.45;3.63;;;;;;;2.93;62.24;102218.44;5028863;28;20042;-78
2023/03/01 10:59:37;;;;;;;5.40;3.22;;;;;;;2.94;61.35;102218.50;5012612;28;20041;-77
2023/03/01 11:02:10;;;;;;;;;;;;;;;2.94;61.15;102222.81;5009749;28;20080;-77
2023/03/01 11:04:36;;;;;;;7.97;3.28;;;;;;;3.00;59.92;102211.84;5028650;28;19953;-79
2023/03/01 11:07:03;;;;;;;11.38;4.28;;;;;;;3.12;59.46;102215.91;5014807;28;20038;-78
2023/03/01 11:09:37;;;;;;;3.25;2.45;;;;;;;3.15;57.85;102209.97;5012130;28;20046;-79
2023/03/01 11:12:16;;;;;;;3.92;2.70;;;;;;;3.16;58.86;102214.34;5011207;28;20100;-77
2023/03/01 11:14:55;;;;;;;4.82;2.33;;;;;;;3.13;59.05;102207.31;5028416;28;20080;-79
2023/03/01 11:17:33;;;;;;;4.28;2.65;;;;;;;3.28;57.98;102203.69;4989423;28;20048;-81
2023/03/01 11:20:17;;;;;;;3.85;2.92;;;;;;;3.39;58.30;102212.81;4992665;28;20046;-77
2023/03/01 11:22:54;;;;;;;4.17;2.70;;;;;;;3.45;56.90;102196.69;5017357;28;20083;-78
2023/03/01 11:25:28;;;;;;;4.57;2.40;;;;;;;3.47;57.08;102200.22;5005198;28;20300;-80
2023/03/01 11:27:57;;;;;;;4.55;2.30;;;;;;;3.58;56.87;102201.56;5004727;28;20041;-80
2023/03/01 11:30:35;;;;;;;5.18;2.90;;;;;;;3.64;56.52;102201.00;4995367;28;20045;-78
2023/03/01 11:33:16;;;;;;;3.15;2.88;;;;;;;3.91;57.05;102200.41;5013751;28;20511;-81
2023/03/01 11:36:22;;;;;;;5.50;3.05;;;;;;;4.89;53.19;102192.31;5023310;28;20519;-78
2023/03/01 11:38:49;;;;;;;7.68;3.83;;;;;;;6.35;50.76;102186.34;5027557;28;20145;-81